Terminal Aerodrome Forecast
Issued by NWS Albany, NY

Home | Current Version | Previous Version | Text Only | Print | Product List | Glossary On
Versions: 1 2 3 4 5 6 7 8 9 10 11 12 13 14 15 16 17 18 19 20 21 22
000
FTUS41 KALY 182300 RRA
TAFALB
TAF
KALB 182342Z 1900/1924 30010G20KT P6SM BKN025 OVC050
     FM190300 31010G16KT P6SM OVC025
     FM191200 32011G18KT P6SM BKN025
     FM191500 32012G20KT P6SM SCT025 BKN040
     FM191800 33009KT P6SM SCT040=

USA.gov is the U.S. government's official web portal to all federal, state and local government web resources and services.